createdAt,value
2018-05-29T00:02:27.633Z,22.03
2018-05-29T00:04:56.013Z,22.07
2018-05-29T00:07:24.417Z,22.53
2018-05-29T00:09:52.769Z,23.17
2018-05-29T00:12:21.131Z,22.90
2018-05-29T00:14:49.522Z,22.83
2018-05-29T00:17:17.881Z,21.60
2018-05-29T00:19:46.269Z,22.67
2018-05-29T00:22:14.641Z,22.73
2018-05-29T00:24:43.033Z,27.70
2018-05-29T00:27:11.392Z,22.23
2018-05-29T00:29:40.270Z,22.77
2018-05-29T00:32:08.617Z,24.43
2018-05-29T00:34:36.999Z,25.20
2018-05-29T00:37:05.382Z,24.10
2018-05-29T00:39:33.747Z,26.07
2018-05-29T00:42:02.540Z,24.57
2018-05-29T00:44:30.895Z,22.83
2018-05-29T00:47:00.016Z,23.93
2018-05-29T00:49:28.384Z,23.37
2018-05-29T00:51:56.742Z,23.07
2018-05-29T00:54:25.862Z,25.57
2018-05-29T00:56:54.216Z,24.13
2018-05-29T00:59:23.363Z,26.60
2018-05-29T01:01:51.724Z,24.90
2018-05-29T01:04:20.110Z,24.53
2018-05-29T01:06:48.485Z,27.70
2018-05-29T01:09:16.852Z,26.20
2018-05-29T01:11:45.254Z,25.23
2018-05-29T01:14:13.620Z,27.77
2018-05-29T01:16:42.130Z,26.17
2018-05-29T01:19:10.497Z,24.53
2018-05-29T01:21:38.868Z,24.43
2018-05-29T01:24:07.268Z,25.60
2018-05-29T01:26:35.612Z,25.73
2018-05-29T01:29:03.986Z,26.63
2018-05-29T01:31:32.328Z,24.97
2018-05-29T01:34:01.061Z,28.30
2018-05-29T01:36:29.459Z,26.37
2018-05-29T01:38:57.813Z,28.80
2018-05-29T01:41:26.197Z,27.70
2018-05-29T01:43:54.557Z,26.17
2018-05-29T01:46:23.687Z,27.63
2018-05-29T01:48:52.036Z,26.67
2018-05-29T01:51:20.420Z,27.63
2018-05-29T01:53:48.777Z,25.83
2018-05-29T01:56:17.281Z,28.57
2018-05-29T01:58:45.633Z,26.73
2018-05-29T02:01:13.980Z,27.23
2018-05-29T02:03:43.143Z,27.63
2018-05-29T02:06:11.506Z,30.30
2018-05-29T02:08:39.876Z,28.80
2018-05-29T02:11:08.627Z,28.03
2018-05-29T02:13:36.998Z,28.43
2018-05-29T02:16:06.098Z,28.37
2018-05-29T02:18:34.473Z,29.33
2018-05-29T02:21:02.840Z,27.17
2018-05-29T02:23:31.990Z,27.10
2018-05-29T02:26:00.346Z,29.60
2018-05-29T02:28:28.734Z,29.63
2018-05-29T02:30:57.073Z,26.87
2018-05-29T02:33:26.614Z,27.77
2018-05-29T02:35:54.959Z,30.40
2018-05-29T02:38:23.345Z,27.33
2018-05-29T02:40:52.140Z,29.73
2018-05-29T02:43:20.484Z,27.40
2018-05-29T02:45:48.841Z,26.00
2018-05-29T02:48:17.219Z,26.10
2018-05-29T02:50:45.616Z,27.30
2018-05-29T02:53:14.740Z,27.87
2018-05-29T02:55:43.122Z,27.50
2018-05-29T02:58:12.222Z,29.53
2018-05-29T03:00:41.012Z,25.93
2018-05-29T03:03:09.409Z,27.33
2018-05-29T03:05:37.766Z,29.03
2018-05-29T03:08:06.158Z,27.80
2018-05-29T03:10:34.563Z,27.50
2018-05-29T03:13:02.921Z,30.97
2018-05-29T03:15:31.301Z,29.83
2018-05-29T03:17:59.712Z,31.23
2018-05-29T03:20:28.099Z,29.23
2018-05-29T03:22:57.238Z,28.60
2018-05-29T03:25:25.599Z,29.43
2018-05-29T03:27:53.979Z,28.23
2018-05-29T03:30:22.334Z,26.27
2018-05-29T03:32:51.486Z,30.57
2018-05-29T03:35:19.867Z,25.27
2018-05-29T03:37:48.228Z,30.17
2018-05-29T03:40:16.605Z,30.10
2018-05-29T03:42:44.985Z,31.00
2018-05-29T03:45:13.331Z,29.67
2018-05-29T03:47:41.814Z,27.67
2018-05-29T03:50:10.187Z,27.50
2018-05-29T03:52:38.545Z,29.10
2018-05-29T03:55:07.711Z,28.47
2018-05-29T03:57:36.092Z,26.10
2018-05-29T04:00:04.470Z,30.13
2018-05-29T04:02:32.854Z,33.60
2018-05-29T04:05:01.234Z,27.00
2018-05-29T04:07:29.590Z,27.57
2018-05-29T04:09:58.912Z,28.60
2018-05-29T04:12:28.048Z,30.90
2018-05-29T04:14:56.416Z,32.03
2018-05-29T04:17:24.763Z,32.50
2018-05-29T04:19:53.258Z,28.73
2018-05-29T04:22:22.401Z,27.33
2018-05-29T04:24:50.764Z,31.87
2018-05-29T04:27:19.132Z,29.87
2018-05-29T04:29:48.247Z,27.80
2018-05-29T04:32:16.948Z,28.83
2018-05-29T04:34:45.328Z,27.47
2018-05-29T04:37:13.702Z,27.33
2018-05-29T04:39:42.497Z,26.07
2018-05-29T04:42:10.883Z,24.70
2018-05-29T04:44:39.250Z,24.83
2018-05-29T04:47:07.667Z,25.30
2018-05-29T04:49:36.799Z,23.37
2018-05-29T04:52:05.603Z,22.80
2018-05-29T04:54:33.971Z,24.53
2018-05-29T04:57:02.354Z,24.00
2018-05-29T04:59:30.727Z,25.73
2018-05-29T05:01:59.080Z,21.07
2018-05-29T05:04:27.457Z,23.07
2018-05-29T05:06:55.818Z,23.20
2018-05-29T05:09:24.981Z,22.60
2018-05-29T05:11:53.323Z,21.07
2018-05-29T05:14:21.693Z,24.87
2018-05-29T05:16:50.083Z,22.07
2018-05-29T05:19:18.490Z,22.13
2018-05-29T05:21:46.859Z,21.10
2018-05-29T05:24:15.239Z,21.37
2018-05-29T05:26:43.719Z,21.23
2018-05-29T05:29:12.116Z,19.47
2018-05-29T05:31:41.257Z,20.17
2018-05-29T05:34:09.630Z,18.63
2018-05-29T05:36:38.014Z,18.53
2018-05-29T05:39:06.407Z,20.07
2018-05-29T05:41:34.753Z,20.00
2018-05-29T05:44:03.593Z,19.07
2018-05-29T05:46:31.968Z,18.90
2018-05-29T05:49:00.346Z,18.07
2018-05-29T05:51:28.731Z,18.50
2018-05-29T05:53:57.133Z,18.37
2018-05-29T05:56:25.518Z,17.23
2018-05-29T05:58:54.670Z,17.57
2018-05-29T06:01:23.016Z,17.50
2018-05-29T06:03:51.408Z,17.60
2018-05-29T06:06:19.779Z,19.80
2018-05-29T06:08:48.592Z,18.47
2018-05-29T06:11:16.993Z,18.07
2018-05-29T06:13:45.365Z,16.70
2018-05-29T06:16:14.227Z,17.20
2018-05-29T06:18:42.609Z,15.47
2018-05-29T06:21:10.990Z,17.50
2018-05-29T06:23:39.373Z,20.20
2018-05-29T06:26:07.749Z,16.90
2018-05-29T06:28:36.124Z,16.90
2018-05-29T06:31:04.486Z,15.97
2018-05-29T06:33:32.890Z,16.00
2018-05-29T06:36:01.254Z,16.80
2018-05-29T06:38:29.649Z,16.30
2018-05-29T06:40:58.001Z,17.80
2018-05-29T06:43:26.415Z,17.70
2018-05-29T06:45:54.791Z,16.30
2018-05-29T06:48:23.166Z,16.57
2018-05-29T06:50:51.573Z,16.87
2018-05-29T06:53:19.925Z,16.37
2018-05-29T06:55:48.311Z,16.80
2018-05-29T06:58:17.442Z,18.37
2018-05-29T07:00:46.172Z,16.07
2018-05-29T07:03:14.534Z,15.60
2018-05-29T07:05:42.887Z,16.30
2018-05-29T07:08:11.261Z,15.17
2018-05-29T07:10:39.633Z,16.03
2018-05-29T07:13:08.032Z,16.50
2018-05-29T07:15:36.407Z,17.10
2018-05-29T07:18:04.808Z,14.27
2018-05-29T07:20:33.160Z,15.70
2018-05-29T07:23:01.533Z,15.33
2018-05-29T07:25:29.900Z,15.20
2018-05-29T07:27:58.301Z,15.40
2018-05-29T07:30:26.689Z,16.47
2018-05-29T07:32:55.081Z,15.87
2018-05-29T07:35:23.468Z,22.70
2018-05-29T07:37:51.852Z,18.17
2018-05-29T07:40:21.017Z,14.70
2018-05-29T07:42:49.383Z,16.20
2018-05-29T07:45:17.851Z,16.57
2018-05-29T07:47:46.224Z,17.33
2018-05-29T07:50:14.611Z,14.47
2018-05-29T07:52:42.987Z,15.37
2018-05-29T07:55:11.391Z,14.23
2018-05-29T07:57:39.889Z,15.87
2018-05-29T08:00:08.258Z,15.10
2018-05-29T08:02:36.624Z,15.53
2018-05-29T08:05:05.019Z,17.77
2018-05-29T08:07:33.398Z,15.07
2018-05-29T08:10:02.575Z,18.65
2018-05-29T08:12:30.962Z,15.45
2018-05-29T08:14:59.368Z,15.07
2018-05-29T08:17:28.500Z,14.23
2018-05-29T08:19:56.902Z,14.27
2018-05-29T08:22:25.254Z,13.67
2018-05-29T08:24:53.775Z,15.23
2018-05-29T08:27:22.919Z,14.75
2018-05-29T08:29:51.286Z,14.23
2018-05-29T08:32:19.687Z,16.05
2018-05-29T08:34:48.084Z,14.13
2018-05-29T08:37:16.432Z,15.57
2018-05-29T08:39:44.844Z,13.93
2018-05-29T08:42:13.210Z,18.45
2018-05-29T08:44:41.618Z,12.95
2018-05-29T08:47:10.012Z,12.98
2018-05-29T08:49:39.168Z,14.45
2018-05-29T08:52:07.532Z,13.27
2018-05-29T08:54:35.950Z,13.57
2018-05-29T08:57:04.332Z,15.73
2018-05-29T08:59:33.464Z,12.05
2018-05-29T09:02:01.853Z,11.07
2018-05-29T09:04:30.218Z,12.95
2018-05-29T09:06:59.379Z,12.52
2018-05-29T09:09:27.752Z,11.00
2018-05-29T09:11:56.206Z,12.05
2018-05-29T09:14:25.056Z,10.63
2018-05-29T09:16:54.379Z,10.15
2018-05-29T09:19:22.762Z,10.30
2018-05-29T09:21:51.548Z,9.60
2018-05-29T09:24:19.920Z,9.98
2018-05-29T09:26:48.274Z,11.00
2018-05-29T09:29:16.640Z,9.15
2018-05-29T09:31:45.749Z,9.57
2018-05-29T09:34:14.140Z,10.10
2018-05-29T09:36:42.495Z,9.40
2018-05-29T09:39:11.315Z,12.27
2018-05-29T09:41:39.684Z,9.38
2018-05-29T09:44:08.044Z,9.98
2018-05-29T09:46:36.427Z,9.63
2018-05-29T09:49:04.769Z,8.30
2018-05-29T09:51:33.137Z,8.15
2018-05-29T09:54:01.477Z,9.52
2018-05-29T09:56:29.883Z,9.35
2018-05-29T09:58:58.225Z,8.45
2018-05-29T10:01:26.588Z,8.70
2018-05-29T10:03:55.435Z,7.62
2018-05-29T10:06:23.814Z,8.45
2018-05-29T10:08:52.419Z,9.05
2018-05-29T10:11:21.607Z,8.68
2018-05-29T10:13:51.049Z,10.70
2018-05-29T10:16:20.410Z,8.75
2018-05-29T10:18:50.631Z,9.05
2018-05-29T10:21:19.371Z,10.32
2018-05-29T10:23:47.765Z,10.30
2018-05-29T10:26:16.567Z,9.57
2018-05-29T10:28:45.748Z,9.82
2018-05-29T10:31:14.524Z,10.60
2018-05-29T10:33:42.943Z,11.30
2018-05-29T10:36:12.100Z,9.43
2018-05-29T10:38:40.449Z,11.00
2018-05-29T10:41:08.812Z,9.90
2018-05-29T10:43:37.166Z,9.57
2018-05-29T10:46:06.357Z,10.27
2018-05-29T10:48:34.735Z,9.77
2018-05-29T10:51:03.100Z,13.18
2018-05-29T10:53:31.589Z,10.23
2018-05-29T10:55:59.975Z,10.73
2018-05-29T10:58:29.099Z,9.48
2018-05-29T11:00:57.488Z,9.25
2018-05-29T11:03:26.210Z,9.32
2018-05-29T11:05:56.149Z,9.25
2018-05-29T11:08:26.969Z,9.07
2018-05-29T11:10:55.351Z,8.45
2018-05-29T11:13:24.112Z,8.82
2018-05-29T11:15:52.503Z,8.05
2018-05-29T11:18:20.875Z,8.80
2018-05-29T11:20:50.683Z,8.20
2018-05-29T11:23:19.071Z,8.70
2018-05-29T11:25:47.479Z,7.07
2018-05-29T11:28:16.614Z,7.00
2018-05-29T11:30:44.983Z,7.32
2018-05-29T11:33:13.766Z,6.18
2018-05-29T11:35:42.107Z,5.90
2018-05-29T11:38:11.301Z,6.85
2018-05-29T11:40:40.467Z,6.75
2018-05-29T11:43:08.967Z,6.70
2018-05-29T11:45:37.323Z,7.75
2018-05-29T11:48:05.691Z,6.47
2018-05-29T11:50:34.488Z,6.65
2018-05-29T11:53:02.856Z,6.40
2018-05-29T11:55:31.225Z,6.32
2018-05-29T11:57:59.620Z,9.65
2018-05-29T12:00:28.033Z,8.02
2018-05-29T12:02:56.416Z,6.60
2018-05-29T12:05:25.548Z,8.88
2018-05-29T12:07:53.913Z,6.90
2018-05-29T12:10:22.311Z,7.37
2018-05-29T12:12:50.731Z,6.78
2018-05-29T12:15:19.100Z,12.10
2018-05-29T12:17:47.446Z,7.60
2018-05-29T12:20:15.845Z,7.20
2018-05-29T12:22:44.244Z,8.80
2018-05-29T12:25:12.613Z,9.52
2018-05-29T12:27:40.976Z,9.25
2018-05-29T12:30:09.457Z,8.35
2018-05-29T12:32:37.837Z,8.20
2018-05-29T12:35:06.182Z,7.43
2018-05-29T12:37:34.593Z,7.57
2018-05-29T12:40:02.989Z,7.60
2018-05-29T12:42:32.100Z,8.00
2018-05-29T12:45:01.268Z,7.57
2018-05-29T12:47:29.616Z,8.77
2018-05-29T12:49:58.017Z,7.50
2018-05-29T12:52:29.921Z,6.78
2018-05-29T12:54:58.708Z,6.80
2018-05-29T12:57:27.074Z,8.05
2018-05-29T12:59:56.219Z,7.03
2018-05-29T13:02:24.624Z,8.23
2018-05-29T13:04:53.000Z,7.12
2018-05-29T13:07:21.414Z,8.90
2018-05-29T13:09:49.796Z,7.07
2018-05-29T13:12:18.157Z,6.72
2018-05-29T13:14:47.345Z,11.55
2018-05-29T13:17:16.498Z,6.50
2018-05-29T13:19:44.891Z,7.68
2018-05-29T13:22:13.270Z,8.18
2018-05-29T13:24:41.676Z,6.57
2018-05-29T13:27:10.822Z,7.78
2018-05-29T13:29:39.205Z,7.70
2018-05-29T13:32:07.587Z,6.35
2018-05-29T13:34:36.078Z,7.00
2018-05-29T13:37:04.947Z,6.28
2018-05-29T13:39:33.299Z,6.70
2018-05-29T13:42:01.654Z,6.40
2018-05-29T13:44:30.905Z,6.57
2018-05-29T13:46:59.386Z,6.70
2018-05-29T13:49:27.726Z,6.80
2018-05-29T13:51:57.035Z,7.07
2018-05-29T13:54:25.473Z,6.60
2018-05-29T13:56:54.615Z,8.27
2018-05-29T13:59:23.259Z,8.07
2018-05-29T14:01:51.730Z,6.47
2018-05-29T14:04:20.093Z,6.55
2018-05-29T14:06:48.473Z,6.75
2018-05-29T14:09:16.850Z,9.27
2018-05-29T14:11:45.215Z,6.35
2018-05-29T14:14:13.981Z,6.80
2018-05-29T14:16:42.346Z,11.18
2018-05-29T14:19:10.691Z,6.75
2018-05-29T14:21:39.085Z,6.72
2018-05-29T14:24:08.206Z,6.95
2018-05-29T14:26:36.634Z,7.32
2018-05-29T14:29:05.053Z,6.93
2018-05-29T14:31:33.808Z,6.85
2018-05-29T14:34:02.169Z,7.30
2018-05-29T14:36:30.529Z,7.28
2018-05-29T14:38:58.923Z,6.97
2018-05-29T14:41:27.701Z,10.18
2018-05-29T14:43:56.144Z,7.78
2018-05-29T14:46:24.502Z,7.15
2018-05-29T14:48:53.236Z,6.95
2018-05-29T14:51:21.665Z,6.80
2018-05-29T14:53:50.020Z,7.22
2018-05-29T14:56:18.405Z,7.82
2018-05-29T14:58:50.538Z,6.95
2018-05-29T15:01:20.096Z,8.95
2018-05-29T15:03:48.990Z,6.70
2018-05-29T15:06:17.390Z,8.20
2018-05-29T15:08:45.879Z,6.90
2018-05-29T15:11:14.251Z,6.90
2018-05-29T15:13:42.673Z,8.13
2018-05-29T15:16:11.086Z,8.75
2018-05-29T15:18:39.583Z,6.85
2018-05-29T15:21:07.872Z,8.35
2018-05-29T15:23:36.265Z,9.13
2018-05-29T15:26:04.657Z,7.07
2018-05-29T15:28:33.807Z,7.72
2018-05-29T15:31:02.649Z,7.97
2018-05-29T15:33:32.816Z,7.60
2018-05-29T15:36:01.184Z,7.15
2018-05-29T15:38:29.567Z,7.22
2018-05-29T15:40:57.930Z,7.28
2018-05-29T15:43:26.643Z,9.00
2018-05-29T15:45:55.013Z,6.90
2018-05-29T15:48:23.370Z,7.15
2018-05-29T15:50:51.766Z,8.40
2018-05-29T15:53:20.160Z,7.60
2018-05-29T15:55:48.537Z,7.75
2018-05-29T15:58:16.932Z,7.57
2018-05-29T16:00:45.336Z,7.18
2018-05-29T16:03:14.487Z,7.57
2018-05-29T16:05:43.276Z,7.47
2018-05-29T16:08:11.642Z,7.32
2018-05-29T16:10:40.005Z,8.63
2018-05-29T16:13:08.406Z,8.20
2018-05-29T16:15:36.788Z,7.18
2018-05-29T16:18:05.155Z,10.55
2018-05-29T16:20:33.537Z,7.78
2018-05-29T16:23:01.941Z,7.95
2018-05-29T16:25:30.330Z,10.15
2018-05-29T16:27:58.821Z,11.52
2018-05-29T16:30:27.961Z,9.43
2018-05-29T16:32:56.324Z,9.00
2018-05-29T16:35:25.474Z,9.55
2018-05-29T16:37:53.835Z,9.98
2018-05-29T16:40:22.623Z,9.23
2018-05-29T16:42:50.969Z,10.82
2018-05-29T16:45:19.306Z,8.90
2018-05-29T16:47:48.564Z,13.62
2018-05-29T16:50:16.931Z,10.23
2018-05-29T16:52:45.274Z,9.15
2018-05-29T16:55:14.448Z,8.82
2018-05-29T16:57:43.580Z,9.50
2018-05-29T17:00:11.973Z,10.98
2018-05-29T17:02:40.342Z,10.15
2018-05-29T17:05:09.162Z,9.27
2018-05-29T17:07:37.535Z,8.82
2018-05-29T17:10:05.907Z,11.00
2018-05-29T17:12:34.283Z,9.60
2018-05-29T17:15:02.642Z,12.23
2018-05-29T17:17:31.130Z,9.32
2018-05-29T17:19:59.472Z,13.32
2018-05-29T17:22:28.596Z,12.95
2018-05-29T17:24:56.980Z,8.77
2018-05-29T17:27:25.325Z,10.52
2018-05-29T17:29:53.716Z,9.90
2018-05-29T17:32:22.068Z,9.10
2018-05-29T17:34:51.218Z,10.45
2018-05-29T17:37:19.593Z,11.82
2018-05-29T17:39:47.986Z,11.10
2018-05-29T17:42:16.497Z,10.15
2018-05-29T17:44:44.903Z,11.85
2018-05-29T17:47:16.508Z,13.57
2018-05-29T17:49:45.229Z,12.07
2018-05-29T17:52:13.609Z,12.87
2018-05-29T17:54:41.992Z,12.83
2018-05-29T17:57:10.385Z,9.00
2018-05-29T17:59:39.199Z,11.63
2018-05-29T18:02:07.561Z,15.00
2018-05-29T18:04:35.941Z,12.43
2018-05-29T18:07:04.335Z,11.47
2018-05-29T18:09:32.696Z,11.83
2018-05-29T18:12:01.084Z,12.73
2018-05-29T18:14:29.439Z,10.23
2018-05-29T18:16:57.804Z,12.27
2018-05-29T18:19:26.171Z,14.57
2018-05-29T18:21:54.573Z,11.20
2018-05-29T18:24:23.704Z,13.47
2018-05-29T18:26:52.091Z,12.93
2018-05-29T18:29:20.469Z,11.80
2018-05-29T18:31:48.856Z,11.87
2018-05-29T18:34:18.146Z,10.53
2018-05-29T18:36:46.520Z,10.77
2018-05-29T18:39:14.888Z,12.37
2018-05-29T18:41:43.278Z,10.63
2018-05-29T18:44:11.665Z,9.83
2018-05-29T18:46:40.827Z,11.93
2018-05-29T18:49:09.249Z,16.43
2018-05-29T18:51:37.591Z,22.00
2018-05-29T18:54:05.955Z,16.63
2018-05-29T18:56:34.357Z,20.97
2018-05-29T18:59:02.757Z,18.63
2018-05-29T19:01:31.914Z,18.43
2018-05-29T19:04:01.281Z,22.13
2018-05-29T19:06:30.409Z,20.43
2018-05-29T19:08:58.912Z,21.33
2018-05-29T19:11:27.290Z,16.00
2018-05-29T19:13:55.819Z,16.47
2018-05-29T19:16:24.456Z,17.97
2018-05-29T19:18:52.824Z,17.63
2018-05-29T19:21:21.229Z,17.73
2018-05-29T19:23:50.383Z,19.43
2018-05-29T19:26:18.896Z,15.63
2018-05-29T19:28:48.080Z,13.23
2018-05-29T19:31:16.900Z,14.37
2018-05-29T19:33:45.527Z,14.43
2018-05-29T19:36:13.969Z,12.67
2018-05-29T19:38:42.439Z,14.30
2018-05-29T19:41:11.611Z,12.93
2018-05-29T19:43:40.023Z,13.73
2018-05-29T19:46:08.535Z,14.63
2018-05-29T19:48:37.030Z,14.37
2018-05-29T19:51:06.522Z,16.10
2018-05-29T19:53:34.946Z,15.20
2018-05-29T19:56:04.150Z,11.60
2018-05-29T19:58:33.290Z,14.17
2018-05-29T20:01:01.972Z,14.00
2018-05-29T20:03:30.390Z,12.40
2018-05-29T20:05:58.814Z,14.73
2018-05-29T20:08:28.360Z,13.37
2018-05-29T20:10:56.767Z,11.90
2018-05-29T20:13:25.900Z,11.20
2018-05-29T20:15:54.274Z,13.37
2018-05-29T20:18:22.673Z,16.73
2018-05-29T20:20:51.076Z,13.73
2018-05-29T20:23:19.501Z,12.47
2018-05-29T20:25:47.895Z,14.87
2018-05-29T20:28:16.299Z,13.27
2018-05-29T20:30:44.678Z,15.43
2018-05-29T20:33:13.079Z,13.33
2018-05-29T20:35:42.208Z,17.27
2018-05-29T20:38:10.609Z,14.03
2018-05-29T20:40:39.045Z,14.77
2018-05-29T20:43:07.542Z,19.67
2018-05-29T20:45:35.919Z,14.90
2018-05-29T20:48:04.305Z,16.67
2018-05-29T20:50:32.714Z,15.53
2018-05-29T20:53:01.090Z,16.67
2018-05-29T20:55:29.870Z,12.90
2018-05-29T20:57:58.232Z,13.00
2018-05-29T21:00:26.622Z,13.60
2018-05-29T21:02:55.385Z,16.43
2018-05-29T21:05:23.771Z,13.00
2018-05-29T21:07:52.142Z,12.33
2018-05-29T21:10:20.539Z,13.20
2018-05-29T21:12:48.933Z,14.10
2018-05-29T21:15:17.314Z,14.27
2018-05-29T21:17:45.710Z,17.67
2018-05-29T21:20:14.113Z,15.67
2018-05-29T21:22:42.471Z,15.87
2018-05-29T21:25:11.948Z,13.30
2018-05-29T21:27:40.321Z,14.47
2018-05-29T21:30:08.695Z,17.93
2018-05-29T21:32:37.085Z,17.87
2018-05-29T21:35:05.508Z,25.00
2018-05-29T21:37:33.918Z,25.20
2018-05-29T21:40:02.264Z,33.90
2018-05-29T21:42:30.735Z,35.50
2018-05-29T21:44:59.861Z,21.97
2018-05-29T21:47:28.228Z,19.87
2018-05-29T21:49:56.609Z,22.60
2018-05-29T21:52:25.009Z,24.93
2018-05-29T21:54:53.526Z,30.03
2018-05-29T21:57:21.906Z,30.10
2018-05-29T21:59:51.038Z,24.20
2018-05-29T22:02:19.451Z,26.37
2018-05-29T22:04:47.841Z,44.17
2018-05-29T22:07:16.208Z,27.93
2018-05-29T22:09:46.628Z,24.87
2018-05-29T22:12:15.370Z,27.00
2018-05-29T22:14:43.807Z,20.83
2018-05-29T22:17:14.211Z,17.67
2018-05-29T22:19:42.611Z,19.47
2018-05-29T22:22:11.643Z,18.70
2018-05-29T22:24:40.008Z,19.40
2018-05-29T22:27:09.167Z,15.87
2018-05-29T22:29:37.545Z,21.37
2018-05-29T22:32:05.919Z,21.47
2018-05-29T22:34:34.697Z,21.50
2018-05-29T22:37:03.078Z,19.60
2018-05-29T22:39:31.449Z,20.27
2018-05-29T22:41:59.861Z,18.10
2018-05-29T22:44:28.240Z,20.07
2018-05-29T22:46:56.664Z,18.03
2018-05-29T22:49:25.042Z,24.20
2018-05-29T22:51:53.405Z,22.57
2018-05-29T22:54:21.800Z,25.93
2018-05-29T22:56:50.186Z,23.93
2018-05-29T22:59:18.587Z,24.53
2018-05-29T23:01:46.982Z,28.20
2018-05-29T23:04:15.479Z,26.10
2018-05-29T23:06:44.611Z,27.67
2018-05-29T23:09:12.987Z,30.23
2018-05-29T23:11:41.392Z,25.93
2018-05-29T23:14:09.780Z,28.13
2018-05-29T23:16:38.557Z,29.53
2018-05-29T23:19:06.929Z,25.73
2018-05-29T23:21:35.315Z,23.43
2018-05-29T23:24:03.708Z,34.57
2018-05-29T23:26:32.079Z,32.37
2018-05-29T23:29:00.882Z,28.50
2018-05-29T23:31:29.260Z,31.80
2018-05-29T23:33:57.638Z,25.63
2018-05-29T23:36:26.035Z,25.43
2018-05-29T23:38:55.158Z,29.57
2018-05-29T23:41:23.569Z,27.03
2018-05-29T23:43:51.967Z,28.27
2018-05-29T23:46:20.465Z,23.20
2018-05-29T23:48:49.588Z,23.43
2018-05-29T23:51:17.987Z,23.83
2018-05-29T23:53:46.383Z,28.87
2018-05-29T23:56:15.101Z,27.97
2018-05-29T23:58:44.243Z,26.23
